sensor_id;sensor_type;location;lat;lon;timestamp;P1;durP1;ratioP1;P2;durP2;ratioP2
20621;SDS011;10470;42.670;23.354;2023-04-12T00:01:55;13.37;;;10.00;;
20621;SDS011;10470;42.670;23.354;2023-04-12T00:04:20;13.83;;;9.57;;
20621;SDS011;10470;42.670;23.354;2023-04-12T00:06:46;13.83;;;9.50;;
20621;SDS011;10470;42.670;23.354;2023-04-12T00:09:15;14.93;;;10.07;;
20621;SDS011;10470;42.670;23.354;2023-04-12T00:11:41;14.67;;;10.13;;
20621;SDS011;10470;42.670;23.354;2023-04-12T00:14:06;13.80;;;9.80;;
20621;SDS011;10470;42.670;23.354;2023-04-12T00:16:32;13.50;;;10.10;;
20621;SDS011;10470;42.670;23.354;2023-04-12T00:18:58;16.13;;;9.97;;
20621;SDS011;10470;42.670;23.354;2023-04-12T00:21:25;13.23;;;9.33;;
20621;SDS011;10470;42.670;23.354;2023-04-12T00:23:53;13.30;;;9.73;;
20621;SDS011;10470;42.670;23.354;2023-04-12T00:26:19;15.07;;;10.17;;
20621;SDS011;10470;42.670;23.354;2023-04-12T00:28:49;13.87;;;10.03;;
20621;SDS011;10470;42.670;23.354;2023-04-12T00:31:14;14.70;;;10.30;;
20621;SDS011;10470;42.670;23.354;2023-04-12T00:33:39;14.97;;;10.43;;
20621;SDS011;10470;42.670;23.354;2023-04-12T00:36:05;14.27;;;10.17;;
20621;SDS011;10470;42.670;23.354;2023-04-12T00:38:31;12.60;;;8.83;;
20621;SDS011;10470;42.670;23.354;2023-04-12T00:40:56;12.70;;;9.47;;
20621;SDS011;10470;42.670;23.354;2023-04-12T00:43:22;14.47;;;10.10;;
20621;SDS011;10470;42.670;23.354;2023-04-12T00:45:51;13.13;;;9.33;;
20621;SDS011;10470;42.670;23.354;2023-04-12T00:48:18;13.77;;;10.03;;
20621;SDS011;10470;42.670;23.354;2023-04-12T00:50:44;12.77;;;8.97;;
20621;SDS011;10470;42.670;23.354;2023-04-12T00:53:11;15.10;;;10.10;;
20621;SDS011;10470;42.670;23.354;2023-04-12T00:55:42;14.37;;;10.33;;
20621;SDS011;10470;42.670;23.354;2023-04-12T00:58:08;13.77;;;9.77;;
20621;SDS011;10470;42.670;23.354;2023-04-12T01:00:34;12.80;;;10.13;;
20621;SDS011;10470;42.670;23.354;2023-04-12T01:03:00;15.97;;;10.77;;
20621;SDS011;10470;42.670;23.354;2023-04-12T01:05:28;13.97;;;10.43;;
20621;SDS011;10470;42.670;23.354;2023-04-12T01:13:27;15.70;;;10.50;;
20621;SDS011;10470;42.670;23.354;2023-04-12T01:16:19;15.67;;;10.77;;
20621;SDS011;10470;42.670;23.354;2023-04-12T01:18:53;16.03;;;10.50;;
20621;SDS011;10470;42.670;23.354;2023-04-12T01:21:30;14.30;;;9.43;;
20621;SDS011;10470;42.670;23.354;2023-04-12T01:26:40;15.37;;;9.93;;
20621;SDS011;10470;42.670;23.354;2023-04-12T01:29:13;15.60;;;10.67;;
20621;SDS011;10470;42.670;23.354;2023-04-12T01:31:41;16.93;;;10.60;;
20621;SDS011;10470;42.670;23.354;2023-04-12T01:34:15;15.67;;;10.20;;
20621;SDS011;10470;42.670;23.354;2023-04-12T01:36:41;15.23;;;10.40;;
20621;SDS011;10470;42.670;23.354;2023-04-12T01:39:09;15.13;;;10.23;;
20621;SDS011;10470;42.670;23.354;2023-04-12T01:41:41;17.13;;;10.60;;
20621;SDS011;10470;42.670;23.354;2023-04-12T01:44:13;13.83;;;10.23;;
20621;SDS011;10470;42.670;23.354;2023-04-12T01:46:39;17.93;;;10.93;;
20621;SDS011;10470;42.670;23.354;2023-04-12T01:49:04;15.17;;;10.20;;
20621;SDS011;10470;42.670;23.354;2023-04-12T01:51:50;15.17;;;11.20;;
20621;SDS011;10470;42.670;23.354;2023-04-12T01:54:23;14.07;;;10.30;;
20621;SDS011;10470;42.670;23.354;2023-04-12T01:56:55;15.83;;;10.93;;
20621;SDS011;10470;42.670;23.354;2023-04-12T01:59:40;15.77;;;11.13;;
20621;SDS011;10470;42.670;23.354;2023-04-12T02:02:07;15.43;;;10.43;;
20621;SDS011;10470;42.670;23.354;2023-04-12T02:04:34;15.17;;;10.23;;
20621;SDS011;10470;42.670;23.354;2023-04-12T02:07:00;17.40;;;11.67;;
20621;SDS011;10470;42.670;23.354;2023-04-12T02:09:26;15.57;;;10.67;;
20621;SDS011;10470;42.670;23.354;2023-04-12T02:11:52;17.73;;;11.30;;
20621;SDS011;10470;42.670;23.354;2023-04-12T02:14:17;14.30;;;10.40;;
20621;SDS011;10470;42.670;23.354;2023-04-12T02:16:43;16.90;;;10.97;;
20621;SDS011;10470;42.670;23.354;2023-04-12T02:19:10;18.13;;;11.57;;
20621;SDS011;10470;42.670;23.354;2023-04-12T02:21:42;17.77;;;11.20;;
20621;SDS011;10470;42.670;23.354;2023-04-12T02:24:09;16.40;;;10.80;;
20621;SDS011;10470;42.670;23.354;2023-04-12T02:26:36;15.57;;;10.80;;
20621;SDS011;10470;42.670;23.354;2023-04-12T02:29:02;14.87;;;10.80;;
20621;SDS011;10470;42.670;23.354;2023-04-12T02:31:33;20.83;;;11.77;;
20621;SDS011;10470;42.670;23.354;2023-04-12T02:33:59;16.03;;;11.50;;
20621;SDS011;10470;42.670;23.354;2023-04-12T02:36:25;15.53;;;10.83;;
20621;SDS011;10470;42.670;23.354;2023-04-12T02:38:50;15.90;;;11.03;;
20621;SDS011;10470;42.670;23.354;2023-04-12T02:41:16;16.37;;;11.53;;
20621;SDS011;10470;42.670;23.354;2023-04-12T02:43:42;15.50;;;11.50;;
20621;SDS011;10470;42.670;23.354;2023-04-12T02:46:08;16.77;;;11.37;;
20621;SDS011;10470;42.670;23.354;2023-04-12T02:48:33;16.77;;;11.37;;
20621;SDS011;10470;42.670;23.354;2023-04-12T02:50:59;16.67;;;11.63;;
20621;SDS011;10470;42.670;23.354;2023-04-12T02:53:24;18.57;;;12.10;;
20621;SDS011;10470;42.670;23.354;2023-04-12T02:55:50;16.80;;;11.63;;
20621;SDS011;10470;42.670;23.354;2023-04-12T02:58:15;16.50;;;11.63;;
20621;SDS011;10470;42.670;23.354;2023-04-12T03:00:41;16.43;;;11.90;;
20621;SDS011;10470;42.670;23.354;2023-04-12T03:03:07;17.97;;;11.93;;
20621;SDS011;10470;42.670;23.354;2023-04-12T03:05:33;15.90;;;10.90;;
20621;SDS011;10470;42.670;23.354;2023-04-12T03:07:58;17.30;;;11.60;;
20621;SDS011;10470;42.670;23.354;2023-04-12T03:10:24;18.07;;;12.47;;
20621;SDS011;10470;42.670;23.354;2023-04-12T03:12:50;17.53;;;11.97;;
20621;SDS011;10470;42.670;23.354;2023-04-12T03:15:15;18.47;;;12.37;;
20621;SDS011;10470;42.670;23.354;2023-04-12T03:17:41;18.33;;;12.37;;
20621;SDS011;10470;42.670;23.354;2023-04-12T03:20:08;21.30;;;13.80;;
20621;SDS011;10470;42.670;23.354;2023-04-12T03:22:35;21.40;;;14.00;;
20621;SDS011;10470;42.670;23.354;2023-04-12T03:25:02;19.70;;;13.60;;
20621;SDS011;10470;42.670;23.354;2023-04-12T03:27:28;21.60;;;13.73;;
20621;SDS011;10470;42.670;23.354;2023-04-12T03:29:53;22.93;;;14.03;;
20621;SDS011;10470;42.670;23.354;2023-04-12T03:32:20;19.87;;;13.87;;
20621;SDS011;10470;42.670;23.354;2023-04-12T03:34:45;23.37;;;14.57;;
20621;SDS011;10470;42.670;23.354;2023-04-12T03:37:11;22.23;;;14.17;;
20621;SDS011;10470;42.670;23.354;2023-04-12T03:39:37;21.10;;;13.87;;
20621;SDS011;10470;42.670;23.354;2023-04-12T03:42:03;25.93;;;15.47;;
20621;SDS011;10470;42.670;23.354;2023-04-12T03:44:28;22.87;;;15.70;;
20621;SDS011;10470;42.670;23.354;2023-04-12T03:46:53;24.10;;;15.50;;
20621;SDS011;10470;42.670;23.354;2023-04-12T03:49:19;26.70;;;16.03;;
20621;SDS011;10470;42.670;23.354;2023-04-12T03:51:45;24.30;;;15.37;;
20621;SDS011;10470;42.670;23.354;2023-04-12T03:54:14;23.13;;;15.63;;
20621;SDS011;10470;42.670;23.354;2023-04-12T03:56:40;24.87;;;15.30;;
20621;SDS011;10470;42.670;23.354;2023-04-12T03:59:06;23.57;;;14.57;;
20621;SDS011;10470;42.670;23.354;2023-04-12T04:01:32;24.90;;;14.83;;
20621;SDS011;10470;42.670;23.354;2023-04-12T04:03:59;21.03;;;13.47;;
20621;SDS011;10470;42.670;23.354;2023-04-12T04:06:24;23.97;;;15.07;;
20621;SDS011;10470;42.670;23.354;2023-04-12T04:08:50;22.37;;;14.97;;
20621;SDS011;10470;42.670;23.354;2023-04-12T04:11:16;23.00;;;14.50;;
20621;SDS011;10470;42.670;23.354;2023-04-12T04:13:41;21.17;;;15.03;;
20621;SDS011;10470;42.670;23.354;2023-04-12T04:16:07;26.13;;;15.77;;
20621;SDS011;10470;42.670;23.354;2023-04-12T04:18:35;22.73;;;15.40;;
20621;SDS011;10470;42.670;23.354;2023-04-12T04:21:01;22.80;;;15.63;;
20621;SDS011;10470;42.670;23.354;2023-04-12T04:23:26;20.70;;;14.20;;
20621;SDS011;10470;42.670;23.354;2023-04-12T04:25:54;23.93;;;15.13;;
20621;SDS011;10470;42.670;23.354;2023-04-12T04:28:20;20.87;;;13.13;;
20621;SDS011;10470;42.670;23.354;2023-04-12T04:30:46;22.83;;;15.43;;
20621;SDS011;10470;42.670;23.354;2023-04-12T04:33:11;22.70;;;15.23;;
20621;SDS011;10470;42.670;23.354;2023-04-12T04:35:40;23.03;;;13.90;;
20621;SDS011;10470;42.670;23.354;2023-04-12T04:38:07;23.13;;;14.83;;
20621;SDS011;10470;42.670;23.354;2023-04-12T04:40:36;24.87;;;15.90;;
20621;SDS011;10470;42.670;23.354;2023-04-12T04:43:02;21.77;;;14.93;;
20621;SDS011;10470;42.670;23.354;2023-04-12T04:45:27;22.23;;;14.43;;
20621;SDS011;10470;42.670;23.354;2023-04-12T04:47:54;24.20;;;15.33;;
20621;SDS011;10470;42.670;23.354;2023-04-12T04:50:21;23.97;;;14.20;;
20621;SDS011;10470;42.670;23.354;2023-04-12T04:52:47;21.93;;;14.90;;
20621;SDS011;10470;42.670;23.354;2023-04-12T04:55:13;21.87;;;13.63;;
20621;SDS011;10470;42.670;23.354;2023-04-12T04:57:41;20.57;;;13.70;;
20621;SDS011;10470;42.670;23.354;2023-04-12T05:00:07;23.30;;;15.17;;
20621;SDS011;10470;42.670;23.354;2023-04-12T05:02:37;21.13;;;13.87;;
20621;SDS011;10470;42.670;23.354;2023-04-12T05:05:04;18.87;;;12.07;;
20621;SDS011;10470;42.670;23.354;2023-04-12T05:07:31;16.33;;;10.43;;
20621;SDS011;10470;42.670;23.354;2023-04-12T05:09:56;15.67;;;9.80;;
20621;SDS011;10470;42.670;23.354;2023-04-12T05:12:22;20.10;;;12.70;;
20621;SDS011;10470;42.670;23.354;2023-04-12T05:14:47;22.07;;;13.40;;
20621;SDS011;10470;42.670;23.354;2023-04-12T05:17:13;17.03;;;11.17;;
20621;SDS011;10470;42.670;23.354;2023-04-12T05:19:39;17.77;;;10.93;;
20621;SDS011;10470;42.670;23.354;2023-04-12T05:22:05;17.27;;;11.20;;
20621;SDS011;10470;42.670;23.354;2023-04-12T05:24:31;15.90;;;11.23;;
20621;SDS011;10470;42.670;23.354;2023-04-12T05:26:56;16.20;;;10.30;;
20621;SDS011;10470;42.670;23.354;2023-04-12T05:29:21;14.60;;;9.33;;
20621;SDS011;10470;42.670;23.354;2023-04-12T05:31:47;13.30;;;8.80;;
20621;SDS011;10470;42.670;23.354;2023-04-12T05:34:12;12.67;;;8.60;;
20621;SDS011;10470;42.670;23.354;2023-04-12T05:36:38;13.57;;;9.07;;
20621;SDS011;10470;42.670;23.354;2023-04-12T05:39:03;10.30;;;7.80;;
20621;SDS011;10470;42.670;23.354;2023-04-12T05:41:28;11.90;;;7.93;;
20621;SDS011;10470;42.670;23.354;2023-04-12T05:43:55;12.47;;;8.57;;
20621;SDS011;10470;42.670;23.354;2023-04-12T05:46:20;10.97;;;8.40;;
20621;SDS011;10470;42.670;23.354;2023-04-12T05:48:47;11.17;;;8.10;;
20621;SDS011;10470;42.670;23.354;2023-04-12T05:51:12;11.40;;;8.00;;
20621;SDS011;10470;42.670;23.354;2023-04-12T05:53:37;8.63;;;6.47;;
20621;SDS011;10470;42.670;23.354;2023-04-12T05:56:03;10.50;;;7.70;;
20621;SDS011;10470;42.670;23.354;2023-04-12T05:58:29;10.23;;;7.13;;
20621;SDS011;10470;42.670;23.354;2023-04-12T06:00:54;8.50;;;6.40;;
20621;SDS011;10470;42.670;23.354;2023-04-12T06:03:20;7.00;;;5.40;;
20621;SDS011;10470;42.670;23.354;2023-04-12T06:05:49;8.00;;;4.83;;
20621;SDS011;10470;42.670;23.354;2023-04-12T06:08:16;8.57;;;5.20;;
20621;SDS011;10470;42.670;23.354;2023-04-12T06:10:42;8.40;;;5.53;;
20621;SDS011;10470;42.670;23.354;2023-04-12T06:13:07;8.90;;;6.10;;
20621;SDS011;10470;42.670;23.354;2023-04-12T06:15:33;7.37;;;6.10;;
20621;SDS011;10470;42.670;23.354;2023-04-12T06:17:58;10.80;;;5.77;;
20621;SDS011;10470;42.670;23.354;2023-04-12T06:20:24;10.43;;;7.00;;
20621;SDS011;10470;42.670;23.354;2023-04-12T06:22:50;8.97;;;6.37;;
20621;SDS011;10470;42.670;23.354;2023-04-12T06:25:15;10.07;;;6.70;;
20621;SDS011;10470;42.670;23.354;2023-04-12T06:27:41;10.30;;;6.07;;
20621;SDS011;10470;42.670;23.354;2023-04-12T06:30:06;10.20;;;6.60;;
20621;SDS011;10470;42.670;23.354;2023-04-12T06:32:32;9.40;;;6.70;;
20621;SDS011;10470;42.670;23.354;2023-04-12T06:34:58;9.63;;;6.50;;
20621;SDS011;10470;42.670;23.354;2023-04-12T06:37:23;11.03;;;6.37;;
20621;SDS011;10470;42.670;23.354;2023-04-12T06:39:49;8.87;;;6.53;;
20621;SDS011;10470;42.670;23.354;2023-04-12T06:42:15;9.33;;;6.30;;
20621;SDS011;10470;42.670;23.354;2023-04-12T06:44:41;11.83;;;8.00;;
20621;SDS011;10470;42.670;23.354;2023-04-12T06:47:07;9.90;;;6.30;;
20621;SDS011;10470;42.670;23.354;2023-04-12T06:49:32;7.03;;;5.17;;
20621;SDS011;10470;42.670;23.354;2023-04-12T06:51:58;8.37;;;5.30;;
20621;SDS011;10470;42.670;23.354;2023-04-12T06:54:23;5.70;;;4.93;;
20621;SDS011;10470;42.670;23.354;2023-04-12T06:56:48;6.20;;;4.60;;
20621;SDS011;10470;42.670;23.354;2023-04-12T06:59:14;6.37;;;4.90;;
20621;SDS011;10470;42.670;23.354;2023-04-12T07:01:40;7.13;;;4.93;;
20621;SDS011;10470;42.670;23.354;2023-04-12T07:04:05;5.30;;;4.43;;
20621;SDS011;10470;42.670;23.354;2023-04-12T07:06:31;5.83;;;4.10;;
20621;SDS011;10470;42.670;23.354;2023-04-12T07:08:56;5.57;;;4.53;;
20621;SDS011;10470;42.670;23.354;2023-04-12T07:11:22;4.73;;;3.60;;
20621;SDS011;10470;42.670;23.354;2023-04-12T07:13:48;8.67;;;4.80;;
20621;SDS011;10470;42.670;23.354;2023-04-12T07:16:14;10.63;;;4.83;;
20621;SDS011;10470;42.670;23.354;2023-04-12T07:18:39;6.53;;;4.60;;
20621;SDS011;10470;42.670;23.354;2023-04-12T07:21:05;5.07;;;4.57;;
20621;SDS011;10470;42.670;23.354;2023-04-12T07:23:30;4.40;;;4.00;;
20621;SDS011;10470;42.670;23.354;2023-04-12T07:26:00;5.40;;;4.90;;
20621;SDS011;10470;42.670;23.354;2023-04-12T07:28:26;8.03;;;5.60;;
20621;SDS011;10470;42.670;23.354;2023-04-12T07:30:52;5.27;;;4.77;;
20621;SDS011;10470;42.670;23.354;2023-04-12T07:33:18;7.73;;;5.00;;
20621;SDS011;10470;42.670;23.354;2023-04-12T07:35:43;6.37;;;5.67;;
20621;SDS011;10470;42.670;23.354;2023-04-12T07:38:09;6.00;;;5.40;;
20621;SDS011;10470;42.670;23.354;2023-04-12T07:40:34;6.50;;;4.93;;
20621;SDS011;10470;42.670;23.354;2023-04-12T07:43:00;5.90;;;5.30;;
20621;SDS011;10470;42.670;23.354;2023-04-12T07:45:25;6.87;;;5.17;;
20621;SDS011;10470;42.670;23.354;2023-04-12T07:47:51;4.90;;;4.40;;
20621;SDS011;10470;42.670;23.354;2023-04-12T07:50:16;5.07;;;4.07;;
20621;SDS011;10470;42.670;23.354;2023-04-12T07:52:42;4.30;;;3.90;;
20621;SDS011;10470;42.670;23.354;2023-04-12T07:55:07;4.63;;;3.67;;
20621;SDS011;10470;42.670;23.354;2023-04-12T07:57:34;4.97;;;4.03;;
20621;SDS011;10470;42.670;23.354;2023-04-12T08:00:00;3.97;;;3.60;;
20621;SDS011;10470;42.670;23.354;2023-04-12T08:02:25;4.83;;;3.83;;
20621;SDS011;10470;42.670;23.354;2023-04-12T08:04:51;4.17;;;3.77;;
20621;SDS011;10470;42.670;23.354;2023-04-12T08:07:17;3.97;;;3.67;;
20621;SDS011;10470;42.670;23.354;2023-04-12T08:09:43;4.27;;;3.87;;
20621;SDS011;10470;42.670;23.354;2023-04-12T08:12:08;3.77;;;3.20;;
20621;SDS011;10470;42.670;23.354;2023-04-12T08:14:34;3.83;;;3.37;;
20621;SDS011;10470;42.670;23.354;2023-04-12T08:17:00;3.97;;;3.57;;
20621;SDS011;10470;42.670;23.354;2023-04-12T08:19:25;6.60;;;3.50;;
20621;SDS011;10470;42.670;23.354;2023-04-12T08:21:51;3.83;;;2.80;;
20621;SDS011;10470;42.670;23.354;2023-04-12T08:24:17;4.97;;;3.33;;
20621;SDS011;10470;42.670;23.354;2023-04-12T08:26:43;3.53;;;3.07;;
20621;SDS011;10470;42.670;23.354;2023-04-12T08:29:09;2.40;;;2.20;;
20621;SDS011;10470;42.670;23.354;2023-04-12T08:31:35;2.87;;;2.43;;
20621;SDS011;10470;42.670;23.354;2023-04-12T08:34:00;1.90;;;1.80;;
20621;SDS011;10470;42.670;23.354;2023-04-12T08:36:26;3.20;;;2.90;;
20621;SDS011;10470;42.670;23.354;2023-04-12T08:38:52;2.90;;;2.33;;
20621;SDS011;10470;42.670;23.354;2023-04-12T08:41:20;5.40;;;2.97;;
20621;SDS011;10470;42.670;23.354;2023-04-12T08:43:45;5.87;;;3.20;;
20621;SDS011;10470;42.670;23.354;2023-04-12T08:46:14;2.97;;;1.97;;
20621;SDS011;10470;42.670;23.354;2023-04-12T08:48:41;2.90;;;2.70;;
20621;SDS011;10470;42.670;23.354;2023-04-12T08:51:12;3.73;;;2.40;;
20621;SDS011;10470;42.670;23.354;2023-04-12T08:53:39;3.37;;;2.40;;
20621;SDS011;10470;42.670;23.354;2023-04-12T08:56:06;3.40;;;2.53;;
20621;SDS011;10470;42.670;23.354;2023-04-12T08:58:36;3.47;;;2.40;;
20621;SDS011;10470;42.670;23.354;2023-04-12T09:01:06;4.03;;;2.10;;
20621;SDS011;10470;42.670;23.354;2023-04-12T09:03:35;2.57;;;2.30;;
20621;SDS011;10470;42.670;23.354;2023-04-12T09:06:01;2.43;;;2.23;;
20621;SDS011;10470;42.670;23.354;2023-04-12T09:08:27;2.57;;;2.13;;
20621;SDS011;10470;42.670;23.354;2023-04-12T09:10:53;8.03;;;2.80;;
20621;SDS011;10470;42.670;23.354;2023-04-12T09:13:29;3.27;;;2.40;;
20621;SDS011;10470;42.670;23.354;2023-04-12T09:15:56;1.50;;;1.30;;
20621;SDS011;10470;42.670;23.354;2023-04-12T09:18:21;2.07;;;1.93;;
20621;SDS011;10470;42.670;23.354;2023-04-12T09:20:47;2.70;;;1.87;;
20621;SDS011;10470;42.670;23.354;2023-04-12T09:23:17;2.17;;;1.90;;
20621;SDS011;10470;42.670;23.354;2023-04-12T09:25:44;2.20;;;1.97;;
20621;SDS011;10470;42.670;23.354;2023-04-12T09:28:24;2.83;;;1.80;;
20621;SDS011;10470;42.670;23.354;2023-04-12T09:30:54;2.70;;;1.80;;
20621;SDS011;10470;42.670;23.354;2023-04-12T09:33:31;2.63;;;2.03;;
20621;SDS011;10470;42.670;23.354;2023-04-12T09:36:03;2.97;;;2.03;;
20621;SDS011;10470;42.670;23.354;2023-04-12T09:38:30;2.80;;;1.80;;
20621;SDS011;10470;42.670;23.354;2023-04-12T09:40:58;2.77;;;1.70;;
20621;SDS011;10470;42.670;23.354;2023-04-12T09:43:39;2.10;;;1.57;;
20621;SDS011;10470;42.670;23.354;2023-04-12T09:46:12;4.03;;;1.80;;
20621;SDS011;10470;42.670;23.354;2023-04-12T09:48:38;2.73;;;1.60;;
20621;SDS011;10470;42.670;23.354;2023-04-12T09:51:05;4.10;;;2.27;;
20621;SDS011;10470;42.670;23.354;2023-04-12T09:53:32;3.83;;;1.80;;
20621;SDS011;10470;42.670;23.354;2023-04-12T09:56:03;2.77;;;2.10;;
20621;SDS011;10470;42.670;23.354;2023-04-12T09:58:32;2.70;;;2.10;;
20621;SDS011;10470;42.670;23.354;2023-04-12T10:01:01;3.93;;;2.60;;
20621;SDS011;10470;42.670;23.354;2023-04-12T10:03:28;3.33;;;1.80;;
20621;SDS011;10470;42.670;23.354;2023-04-12T10:05:53;2.77;;;2.40;;
20621;SDS011;10470;42.670;23.354;2023-04-12T10:08:21;1.83;;;1.37;;
20621;SDS011;10470;42.670;23.354;2023-04-12T10:10:47;2.20;;;1.60;;
20621;SDS011;10470;42.670;23.354;2023-04-12T10:13:12;1.53;;;1.37;;
20621;SDS011;10470;42.670;23.354;2023-04-12T10:15:40;1.27;;;1.17;;
20621;SDS011;10470;42.670;23.354;2023-04-12T10:18:05;1.90;;;1.30;;
20621;SDS011;10470;42.670;23.354;2023-04-12T10:20:32;3.00;;;1.40;;
20621;SDS011;10470;42.670;23.354;2023-04-12T10:22:57;2.23;;;1.80;;
20621;SDS011;10470;42.670;23.354;2023-04-12T10:25:24;2.43;;;1.03;;
20621;SDS011;10470;42.670;23.354;2023-04-12T10:27:51;2.20;;;1.10;;
20621;SDS011;10470;42.670;23.354;2023-04-12T10:30:21;2.07;;;1.33;;
20621;SDS011;10470;42.670;23.354;2023-04-12T10:35:49;2.07;;;1.60;;
20621;SDS011;10470;42.670;23.354;2023-04-12T10:38:23;1.73;;;1.40;;
20621;SDS011;10470;42.670;23.354;2023-04-12T10:43:52;1.30;;;1.10;;
20621;SDS011;10470;42.670;23.354;2023-04-12T10:46:47;2.30;;;1.30;;
20621;SDS011;10470;42.670;23.354;2023-04-12T10:49:13;2.30;;;1.60;;
20621;SDS011;10470;42.670;23.354;2023-04-12T10:52:09;2.67;;;1.47;;
20621;SDS011;10470;42.670;23.354;2023-04-12T10:56:50;2.40;;;1.30;;
20621;SDS011;10470;42.670;23.354;2023-04-12T10:59:16;1.50;;;1.20;;
20621;SDS011;10470;42.670;23.354;2023-04-12T11:02:27;1.40;;;1.30;;
20621;SDS011;10470;42.670;23.354;2023-04-12T11:04:37;1.27;;;0.83;;
20621;SDS011;10470;42.670;23.354;2023-04-12T11:07:06;2.37;;;1.20;;
20621;SDS011;10470;42.670;23.354;2023-04-12T11:14:42;1.80;;;1.00;;
20621;SDS011;10470;42.670;23.354;2023-04-12T11:19:42;2.43;;;1.27;;
20621;SDS011;10470;42.670;23.354;2023-04-12T11:22:13;1.13;;;0.90;;
20621;SDS011;10470;42.670;23.354;2023-04-12T11:24:43;4.90;;;1.67;;
20621;SDS011;10470;42.670;23.354;2023-04-12T11:27:13;1.30;;;1.00;;
20621;SDS011;10470;42.670;23.354;2023-04-12T11:29:42;1.27;;;1.17;;
20621;SDS011;10470;42.670;23.354;2023-04-12T11:32:09;3.43;;;1.27;;
20621;SDS011;10470;42.670;23.354;2023-04-12T11:34:39;1.00;;;0.90;;
20621;SDS011;10470;42.670;23.354;2023-04-12T11:37:06;1.30;;;0.70;;
20621;SDS011;10470;42.670;23.354;2023-04-12T11:39:42;2.37;;;1.20;;
20621;SDS011;10470;42.670;23.354;2023-04-12T11:42:21;3.23;;;1.13;;
20621;SDS011;10470;42.670;23.354;2023-04-12T11:44:47;2.60;;;1.10;;
20621;SDS011;10470;42.670;23.354;2023-04-12T11:47:14;2.87;;;1.20;;
20621;SDS011;10470;42.670;23.354;2023-04-12T11:49:45;2.13;;;1.23;;
20621;SDS011;10470;42.670;23.354;2023-04-12T11:52:19;1.07;;;0.97;;
20621;SDS011;10470;42.670;23.354;2023-04-12T11:54:46;1.77;;;1.00;;
20621;SDS011;10470;42.670;23.354;2023-04-12T11:57:13;1.33;;;0.90;;
20621;SDS011;10470;42.670;23.354;2023-04-12T11:59:49;9.10;;;1.60;;
20621;SDS011;10470;42.670;23.354;2023-04-12T12:02:16;2.40;;;1.00;;
20621;SDS011;10470;42.670;23.354;2023-04-12T12:04:46;1.93;;;1.20;;
20621;SDS011;10470;42.670;23.354;2023-04-12T12:07:13;1.17;;;1.03;;
20621;SDS011;10470;42.670;23.354;2023-04-12T12:09:41;1.40;;;1.30;;
20621;SDS011;10470;42.670;23.354;2023-04-12T12:12:09;1.23;;;0.80;;
20621;SDS011;10470;42.670;23.354;2023-04-12T12:14:35;0.93;;;0.93;;
20621;SDS011;10470;42.670;23.354;2023-04-12T12:17:01;1.53;;;1.30;;
20621;SDS011;10470;42.670;23.354;2023-04-12T12:19:35;2.10;;;0.90;;
20621;SDS011;10470;42.670;23.354;2023-04-12T12:24:48;2.10;;;1.00;;
20621;SDS011;10470;42.670;23.354;2023-04-12T12:27:32;1.73;;;1.00;;
20621;SDS011;10470;42.670;23.354;2023-04-12T12:29:59;1.50;;;1.00;;
20621;SDS011;10470;42.670;23.354;2023-04-12T12:32:29;2.20;;;0.97;;
20621;SDS011;10470;42.670;23.354;2023-04-12T12:34:58;4.43;;;1.10;;
20621;SDS011;10470;42.670;23.354;2023-04-12T12:37:23;1.63;;;0.90;;
20621;SDS011;10470;42.670;23.354;2023-04-12T12:42:25;1.60;;;0.90;;
20621;SDS011;10470;42.670;23.354;2023-04-12T12:44:51;4.27;;;1.00;;
20621;SDS011;10470;42.670;23.354;2023-04-12T12:47:16;3.80;;;1.17;;
20621;SDS011;10470;42.670;23.354;2023-04-12T12:49:42;1.73;;;1.00;;
20621;SDS011;10470;42.670;23.354;2023-04-12T12:52:07;1.83;;;1.10;;
20621;SDS011;10470;42.670;23.354;2023-04-12T12:54:33;2.20;;;1.10;;
20621;SDS011;10470;42.670;23.354;2023-04-12T12:56:59;1.00;;;0.87;;
20621;SDS011;10470;42.670;23.354;2023-04-12T12:59:25;1.17;;;0.90;;
20621;SDS011;10470;42.670;23.354;2023-04-12T13:01:51;3.57;;;0.90;;
20621;SDS011;10470;42.670;23.354;2023-04-12T13:04:16;2.17;;;0.90;;
20621;SDS011;10470;42.670;23.354;2023-04-12T13:06:42;3.37;;;1.10;;
20621;SDS011;10470;42.670;23.354;2023-04-12T13:09:07;0.83;;;0.80;;
20621;SDS011;10470;42.670;23.354;2023-04-12T13:11:33;2.40;;;1.10;;
20621;SDS011;10470;42.670;23.354;2023-04-12T13:13:58;2.83;;;0.87;;
20621;SDS011;10470;42.670;23.354;2023-04-12T13:16:24;2.43;;;0.90;;
20621;SDS011;10470;42.670;23.354;2023-04-12T13:18:49;1.17;;;1.07;;
20621;SDS011;10470;42.670;23.354;2023-04-12T13:21:15;2.40;;;1.00;;
20621;SDS011;10470;42.670;23.354;2023-04-12T13:23:40;2.70;;;1.00;;
20621;SDS011;10470;42.670;23.354;2023-04-12T13:26:06;2.23;;;1.00;;
20621;SDS011;10470;42.670;23.354;2023-04-12T13:28:31;1.27;;;0.90;;
20621;SDS011;10470;42.670;23.354;2023-04-12T13:30:57;2.63;;;1.00;;
20621;SDS011;10470;42.670;23.354;2023-04-12T13:33:22;2.53;;;1.00;;
20621;SDS011;10470;42.670;23.354;2023-04-12T13:35:48;1.50;;;1.07;;
20621;SDS011;10470;42.670;23.354;2023-04-12T13:38:13;1.60;;;1.00;;
20621;SDS011;10470;42.670;23.354;2023-04-12T13:40:39;1.33;;;1.00;;
20621;SDS011;10470;42.670;23.354;2023-04-12T13:43:04;1.53;;;1.10;;
20621;SDS011;10470;42.670;23.354;2023-04-12T13:45:31;2.23;;;1.23;;
20621;SDS011;10470;42.670;23.354;2023-04-12T13:47:57;1.87;;;0.90;;
20621;SDS011;10470;42.670;23.354;2023-04-12T13:50:22;2.10;;;0.90;;
20621;SDS011;10470;42.670;23.354;2023-04-12T13:52:47;2.20;;;1.07;;
20621;SDS011;10470;42.670;23.354;2023-04-12T13:55:13;2.20;;;1.20;;
20621;SDS011;10470;42.670;23.354;2023-04-12T13:57:38;1.30;;;1.20;;
20621;SDS011;10470;42.670;23.354;2023-04-12T14:00:04;2.37;;;1.10;;
20621;SDS011;10470;42.670;23.354;2023-04-12T14:02:30;1.83;;;0.90;;
20621;SDS011;10470;42.670;23.354;2023-04-12T14:04:55;3.97;;;1.00;;
20621;SDS011;10470;42.670;23.354;2023-04-12T14:07:21;2.87;;;1.30;;
20621;SDS011;10470;42.670;23.354;2023-04-12T14:09:48;2.73;;;1.00;;
20621;SDS011;10470;42.670;23.354;2023-04-12T14:12:13;2.43;;;1.17;;
20621;SDS011;10470;42.670;23.354;2023-04-12T14:14:39;3.03;;;1.10;;
20621;SDS011;10470;42.670;23.354;2023-04-12T14:17:04;1.87;;;1.10;;
20621;SDS011;10470;42.670;23.354;2023-04-12T14:19:30;1.20;;;1.10;;
20621;SDS011;10470;42.670;23.354;2023-04-12T14:21:56;1.53;;;1.20;;
20621;SDS011;10470;42.670;23.354;2023-04-12T14:24:21;0.80;;;0.80;;
20621;SDS011;10470;42.670;23.354;2023-04-12T14:26:47;3.73;;;1.30;;
20621;SDS011;10470;42.670;23.354;2023-04-12T14:29:15;2.13;;;1.00;;
20621;SDS011;10470;42.670;23.354;2023-04-12T14:31:41;1.77;;;0.93;;
20621;SDS011;10470;42.670;23.354;2023-04-12T14:34:06;1.57;;;1.00;;
20621;SDS011;10470;42.670;23.354;2023-04-12T14:36:35;1.57;;;0.90;;
20621;SDS011;10470;42.670;23.354;2023-04-12T14:39:01;1.80;;;1.10;;
20621;SDS011;10470;42.670;23.354;2023-04-12T14:41:30;3.70;;;1.10;;
20621;SDS011;10470;42.670;23.354;2023-04-12T14:43:57;0.80;;;0.80;;
20621;SDS011;10470;42.670;23.354;2023-04-12T14:46:23;1.53;;;1.07;;
20621;SDS011;10470;42.670;23.354;2023-04-12T14:48:49;1.50;;;1.00;;
20621;SDS011;10470;42.670;23.354;2023-04-12T14:51:15;3.33;;;1.10;;
20621;SDS011;10470;42.670;23.354;2023-04-12T14:53:41;1.03;;;0.90;;
20621;SDS011;10470;42.670;23.354;2023-04-12T14:56:24;2.10;;;1.00;;